Time,TemperatureF,DewpointF,PressureIn,WindDirection,WindDirectionDegrees,WindSpeedMPH,WindSpeedGustMPH,Humidity,HourlyPrecipIn,Conditions,Clouds,dailyrainin,SoftwareType,DateUTC
2013-07-13 00:32:00,67.0,-99.9,30.16,NNE,24,8.0,9.0,-999,-99.99,,,-99.99,,2013-07-13 04:32:00,
2013-07-13 00:44:00,67.0,-99.9,30.16,NNE,19,7.0,9.0,-999,-99.99,,,-99.99,,2013-07-13 04:44:00,
2013-07-13 01:01:00,67.0,-99.9,30.16,NNE,19,8.0,9.0,-999,-99.99,,,-99.99,,2013-07-13 05:01:00,
2013-07-13 01:22:00,67.0,-99.9,30.16,North,11,7.0,9.0,-999,-99.99,,,-99.99,,2013-07-13 05:22:00,
2013-07-13 01:33:00,67.0,-99.9,30.17,NNE,21,7.0,10.0,-999,-99.99,,,-99.99,,2013-07-13 05:33:00,
2013-07-13 01:42:00,67.0,-99.9,30.16,NNE,25,8.0,10.0,-999,-99.99,,,-99.99,,2013-07-13 05:42:00,
2013-07-13 02:02:00,67.0,-99.9,30.16,North,11,7.0,9.0,-999,-99.99,,,-99.99,,2013-07-13 06:02:00,
2013-07-13 02:52:00,67.0,-99.9,30.16,NNE,15,7.0,8.0,-999,-99.99,,,-99.99,,2013-07-13 06:52:00,
2013-07-13 03:02:00,67.0,-99.9,30.16,North,11,8.0,9.0,-999,-99.99,,,-99.99,,2013-07-13 07:02:00,
2013-07-13 03:33:00,67.0,-99.9,30.17,NE,37,7.0,8.0,-999,-99.99,,,-99.99,,2013-07-13 07:33:00,
2013-07-13 03:44:00,67.0,-99.9,30.17,NE,36,8.0,10.0,-999,-99.99,,,-99.99,,2013-07-13 07:44:00,
2013-07-13 03:53:00,67.0,-99.9,30.18,NNE,21,5.0,8.0,-999,-99.99,,,-99.99,,2013-07-13 07:53:00,
2013-07-13 04:02:00,67.0,-99.9,30.18,NNE,12,7.0,9.0,-999,-99.99,,,-99.99,,2013-07-13 08:02:00,
2013-07-13 04:22:00,67.0,-99.9,30.18,North,9,8.0,9.0,-999,-99.99,,,-99.99,,2013-07-13 08:22:00,
2013-07-13 04:33:00,67.0,-99.9,30.18,NNE,24,10.0,12.0,-999,-99.99,,,-99.99,,2013-07-13 08:33:00,
2013-07-13 04:43:00,67.0,-99.9,30.19,North,1,5.0,9.0,-999,-99.99,,,-99.99,,2013-07-13 08:43:00,
2013-07-13 04:52:00,67.0,-99.9,30.19,North,5,8.0,11.0,-999,-99.99,,,-99.99,,2013-07-13 08:52:00,
2013-07-13 05:02:00,67.0,-99.9,30.19,North,9,6.0,7.0,-999,-99.99,,,-99.99,,2013-07-13 09:02:00,
2013-07-13 05:22:00,67.0,-99.9,30.20,NNE,15,8.0,10.0,-999,-99.99,,,-99.99,,2013-07-13 09:22:00,
2013-07-13 05:33:00,67.0,-99.9,30.20,NNE,12,9.0,10.0,-999,-99.99,,,-99.99,,2013-07-13 09:33:00,
2013-07-13 05:43:00,67.0,-99.9,30.20,NNE,12,7.0,10.0,-999,-99.99,,,-99.99,,2013-07-13 09:43:00,
2013-07-13 06:32:00,67.0,-99.9,30.21,NNE,30,11.0,12.0,-999,-99.99,,,-99.99,,2013-07-13 10:32:00,
2013-07-13 06:43:00,67.0,-99.9,30.22,NNE,25,11.0,13.0,-999,-99.99,,,-99.99,,2013-07-13 10:43:00,
2013-07-13 06:52:00,67.0,-99.9,30.22,NNE,22,11.0,13.0,-999,-99.99,,,-99.99,,2013-07-13 10:52:00,
2013-07-13 07:02:00,67.0,-99.9,30.22,NNE,23,9.0,12.0,-999,-99.99,,,-99.99,,2013-07-13 11:02:00,
2013-07-13 07:32:00,67.0,-99.9,30.23,NNE,29,9.0,11.0,-999,-99.99,,,-99.99,,2013-07-13 11:32:00,
2013-07-13 08:02:00,67.0,-99.9,30.24,NNE,20,9.0,12.0,-999,-99.99,,,-99.99,,2013-07-13 12:02:00,
2013-07-13 08:22:00,67.0,-99.9,30.24,NE,34,9.0,11.0,-999,-99.99,,,-99.99,,2013-07-13 12:22:00,
2013-07-13 09:01:00,68.0,-99.9,30.26,NE,35,6.0,10.0,-999,-99.99,,,-99.99,,2013-07-13 13:01:00,
2013-07-13 09:12:00,68.0,-99.9,30.26,NNE,18,6.0,8.0,-999,-99.99,,,-99.99,,2013-07-13 13:12:00,
2013-07-13 09:22:00,68.0,-99.9,30.26,NE,44,8.0,10.0,-999,-99.99,,,-99.99,,2013-07-13 13:22:00,
2013-07-13 09:32:00,68.0,-99.9,30.26,NE,47,9.0,11.0,-999,-99.99,,,-99.99,,2013-07-13 13:32:00,
2013-07-13 09:43:00,69.0,-99.9,30.26,NE,44,7.0,8.0,-999,-99.99,,,-99.99,,2013-07-13 13:43:00,
2013-07-13 10:02:00,69.0,-99.9,30.26,ENE,58,7.0,9.0,-999,-99.99,,,-99.99,,2013-07-13 14:02:00,
2013-07-13 10:11:00,69.0,-99.9,30.26,NE,48,8.0,10.0,-999,-99.99,,,-99.99,,2013-07-13 14:11:00,
2013-07-13 10:33:00,69.0,-99.9,30.27,NE,52,8.0,9.0,-999,-99.99,,,-99.99,,2013-07-13 14:33:00,
2013-07-13 11:02:00,69.0,-99.9,30.27,NE,45,6.0,7.0,-999,-99.99,,,-99.99,,2013-07-13 15:02:00,
2013-07-13 11:33:00,70.0,-99.9,30.27,NNE,31,4.0,5.0,-999,-99.99,,,-99.99,,2013-07-13 15:33:00,
2013-07-13 11:43:00,71.0,-99.9,30.27,NE,38,3.0,4.0,-999,-99.99,,,-99.99,,2013-07-13 15:43:00,
2013-07-13 12:02:00,71.0,-99.9,30.27,NW,319,3.0,3.0,-999,-99.99,,,-99.99,,2013-07-13 16:02:00,
2013-07-13 12:33:00,73.0,-99.9,30.27,North,3,3.0,6.0,-999,-99.99,,,-99.99,,2013-07-13 16:33:00,
2013-07-13 12:43:00,74.0,-99.9,30.27,NE,43,4.0,5.0,-999,-99.99,,,-99.99,,2013-07-13 16:43:00,
2013-07-13 12:53:00,74.0,-99.9,30.27,NW,311,3.0,4.0,-999,-99.99,,,-99.99,,2013-07-13 16:53:00,
2013-07-13 13:02:00,74.0,-99.9,30.27,WNW,292,3.0,4.0,-999,-99.99,,,-99.99,,2013-07-13 17:02:00,
2013-07-13 13:12:00,73.0,-99.9,30.27,WNW,283,4.0,5.0,-999,-99.99,,,-99.99,,2013-07-13 17:12:00,
2013-07-13 13:22:00,73.0,-99.9,30.27,WNW,296,6.0,7.0,-999,-99.99,,,-99.99,,2013-07-13 17:22:00,
2013-07-13 13:33:00,73.0,-99.9,30.27,WNW,303,8.0,8.0,-999,-99.99,,,-99.99,,2013-07-13 17:33:00,
2013-07-13 13:43:00,73.0,-99.9,30.27,WNW,303,7.0,8.0,-999,-99.99,,,-99.99,,2013-07-13 17:43:00,
2013-07-13 13:52:00,74.0,-99.9,30.27,WNW,296,5.0,6.0,-999,-99.99,,,-99.99,,2013-07-13 17:52:00,
2013-07-13 14:02:00,74.0,-99.9,30.27,WNW,289,5.0,6.0,-999,-99.99,,,-99.99,,2013-07-13 18:02:00,
2013-07-13 14:22:00,75.0,-99.9,30.27,West,268,3.0,4.0,-999,-99.99,,,-99.99,,2013-07-13 18:22:00,
2013-07-13 14:32:00,74.0,-99.9,30.27,WNW,299,3.0,4.0,-999,-99.99,,,-99.99,,2013-07-13 18:32:00,
2013-07-13 14:44:00,75.0,-99.9,30.27,West,263,2.0,3.0,-999,-99.99,,,-99.99,,2013-07-13 18:44:00,
2013-07-13 14:53:00,75.0,-99.9,30.27,West,280,2.0,3.0,-999,-99.99,,,-99.99,,2013-07-13 18:53:00,
2013-07-13 15:02:00,76.0,-99.9,30.27,WSW,251,1.0,2.0,-999,-99.99,,,-99.99,,2013-07-13 19:02:00,
2013-07-13 15:11:00,75.0,-99.9,30.27,WNW,301,1.0,2.0,-999,-99.99,,,-99.99,,2013-07-13 19:11:00,
2013-07-13 15:22:00,76.0,-99.9,30.27,West,281,-999.0,1.0,-999,-99.99,,,-99.99,,2013-07-13 19:22:00,
2013-07-13 15:32:00,76.0,-99.9,30.27,NW,321,0.0,1.0,-999,-99.99,,,-99.99,,2013-07-13 19:32:00,
2013-07-13 15:44:00,76.0,-99.9,30.27,NW,325,1.0,2.0,-999,-99.99,,,-99.99,,2013-07-13 19:44:00,
2013-07-13 15:52:00,76.0,-99.9,30.27,NW,325,2.0,3.0,-999,-99.99,,,-99.99,,2013-07-13 19:52:00,
2013-07-13 16:02:00,75.0,-99.9,30.27,NNW,327,3.0,3.0,-999,-99.99,,,-99.99,,2013-07-13 20:02:00,
2013-07-13 16:12:00,76.0,-99.9,30.26,NW,316,2.0,3.0,-999,-99.99,,,-99.99,,2013-07-13 20:12:00,
2013-07-13 16:33:00,76.0,-99.9,30.26,WNW,296,2.0,3.0,-999,-99.99,,,-99.99,,2013-07-13 20:33:00,
2013-07-13 16:43:00,76.0,-99.9,30.26,WNW,300,2.0,2.0,-999,-99.99,,,-99.99,,2013-07-13 20:43:00,
2013-07-13 16:53:00,76.0,-99.9,30.26,NW,314,3.0,4.0,-999,-99.99,,,-99.99,,2013-07-13 20:53:00,
2013-07-13 17:02:00,76.0,-99.9,30.26,WNW,285,2.0,4.0,-999,-99.99,,,-99.99,,2013-07-13 21:02:00,
2013-07-13 17:22:00,78.0,-99.9,30.26,SSE,162,3.0,3.0,-999,-99.99,,,-99.99,,2013-07-13 21:22:00,
2013-07-13 17:32:00,78.0,-99.9,30.26,SSE,160,2.0,3.0,-999,-99.99,,,-99.99,,2013-07-13 21:32:00,
2013-07-13 17:43:00,78.0,-99.9,30.25,SSW,205,-999.0,1.0,-999,-99.99,,,-99.99,,2013-07-13 21:43:00,
2013-07-13 18:01:00,78.0,-99.9,30.25,North,-999,-999.0,-999.0,-999,-99.99,,,-99.99,,2013-07-13 22:01:00,
2013-07-13 18:12:00,78.0,-99.9,30.25,SSE,153,3.0,4.0,-999,-99.99,,,-99.99,,2013-07-13 22:12:00,
2013-07-13 18:32:00,78.0,-99.9,30.26,South,170,4.0,4.0,-999,-99.99,,,-99.99,,2013-07-13 22:32:00,
2013-07-13 18:43:00,78.0,-99.9,30.26,South,176,4.0,4.0,-999,-99.99,,,-99.99,,2013-07-13 22:43:00,
2013-07-13 18:53:00,77.0,-99.9,30.26,South,169,4.0,4.0,-999,-99.99,,,-99.99,,2013-07-13 22:53:00,
2013-07-13 19:02:00,77.0,-99.9,30.26,South,170,4.0,5.0,-999,-99.99,,,-99.99,,2013-07-13 23:02:00,
2013-07-13 19:11:00,78.0,-99.9,30.26,SSE,160,3.0,4.0,-999,-99.99,,,-99.99,,2013-07-13 23:11:00,
2013-07-13 19:22:00,78.0,-99.9,30.26,SSE,161,3.0,3.0,-999,-99.99,,,-99.99,,2013-07-13 23:22:00,
2013-07-13 19:33:00,78.0,-99.9,30.26,SSE,161,4.0,4.0,-999,-99.99,,,-99.99,,2013-07-13 23:33:00,
2013-07-13 19:43:00,77.0,-99.9,30.26,South,177,5.0,6.0,-999,-99.99,,,-99.99,,2013-07-13 23:43:00,
2013-07-13 19:53:00,77.0,-99.9,30.27,South,185,6.0,7.0,-999,-99.99,,,-99.99,,2013-07-13 23:53:00,
2013-07-13 20:01:00,77.0,-99.9,30.27,South,183,6.0,7.0,-999,-99.99,,,-99.99,,2013-07-14 00:01:00,
2013-07-13 20:12:00,76.0,-99.9,30.27,South,180,6.0,7.0,-999,-99.99,,,-99.99,,2013-07-14 00:12:00,
2013-07-13 20:33:00,76.0,-99.9,30.27,South,174,6.0,6.0,-999,-99.99,,,-99.99,,2013-07-14 00:33:00,
2013-07-13 20:42:00,76.0,-99.9,30.27,SSE,164,5.0,6.0,-999,-99.99,,,-99.99,,2013-07-14 00:42:00,
2013-07-13 20:53:00,76.0,-99.9,30.27,South,171,5.0,6.0,-999,-99.99,,,-99.99,,2013-07-14 00:53:00,
2013-07-13 21:02:00,76.0,-99.9,30.27,SSE,147,4.0,5.0,-999,-99.99,,,-99.99,,2013-07-14 01:02:00,
2013-07-13 21:11:00,76.0,-99.9,30.27,SSE,148,4.0,5.0,-999,-99.99,,,-99.99,,2013-07-14 01:11:00,
2013-07-13 21:22:00,76.0,-99.9,30.28,South,169,5.0,6.0,-999,-99.99,,,-99.99,,2013-07-14 01:22:00,
2013-07-13 21:32:00,76.0,-99.9,30.27,South,183,5.0,6.0,-999,-99.99,,,-99.99,,2013-07-14 01:32:00,
2013-07-13 21:43:00,76.0,-99.9,30.28,South,183,4.0,5.0,-999,-99.99,,,-99.99,,2013-07-14 01:43:00,
2013-07-13 21:52:00,76.0,-99.9,30.28,SSE,151,9.0,9.0,-999,-99.99,,,-99.99,,2013-07-14 01:52:00,
2013-07-13 22:02:00,75.0,-99.9,30.28,SE,140,9.0,10.0,-999,-99.99,,,-99.99,,2013-07-14 02:02:00,
2013-07-13 22:11:00,75.0,-99.9,30.28,SE,140,8.0,9.0,-999,-99.99,,,-99.99,,2013-07-14 02:11:00,
2013-07-13 22:22:00,75.0,-99.9,30.28,SE,126,8.0,8.0,-999,-99.99,,,-99.99,,2013-07-14 02:22:00,
2013-07-13 22:32:00,75.0,-99.9,30.28,SE,129,8.0,9.0,-999,-99.99,,,-99.99,,2013-07-14 02:32:00,
2013-07-13 22:43:00,74.0,-99.9,30.28,SE,141,8.0,9.0,-999,-99.99,,,-99.99,,2013-07-14 02:43:00,
2013-07-13 22:53:00,74.0,-99.9,30.28,SSE,148,8.0,9.0,-999,-99.99,,,-99.99,,2013-07-14 02:53:00,
2013-07-13 23:02:00,74.0,-99.9,30.28,SSE,149,9.0,9.0,-999,-99.99,,,-99.99,,2013-07-14 03:02:00,
2013-07-13 23:12:00,74.0,-99.9,30.28,SSE,156,10.0,10.0,-999,-99.99,,,-99.99,,2013-07-14 03:12:00,
2013-07-13 23:22:00,74.0,-99.9,30.28,SE,140,7.0,9.0,-999,-99.99,,,-99.99,,2013-07-14 03:22:00,
2013-07-13 23:32:00,74.0,-99.9,30.28,SE,140,6.0,7.0,-999,-99.99,,,-99.99,,2013-07-14 03:32:00,
2013-07-13 23:43:00,74.0,-99.9,30.28,SE,138,6.0,8.0,-999,-99.99,,,-99.99,,2013-07-14 03:43:00,
2013-07-13 23:53:00,74.0,-99.9,30.28,SE,144,4.0,5.0,-999,-99.99,,,-99.99,,2013-07-14 03:53:00,